createdAt,value
2023-02-04T00:00:13.849Z,1.51
2023-02-04T00:02:41.785Z,1.51
2023-02-04T00:05:10.079Z,1.44
2023-02-04T00:07:37.485Z,1.43
2023-02-04T00:10:06.493Z,1.39
2023-02-04T00:12:34.689Z,1.28
2023-02-04T00:15:01.786Z,1.27
2023-02-04T00:17:28.722Z,1.30
2023-02-04T00:19:55.779Z,1.35
2023-02-04T00:22:22.634Z,1.45
2023-02-04T00:24:50.969Z,1.63
2023-02-04T00:27:18.011Z,1.75
2023-02-04T00:29:44.865Z,1.89
2023-02-04T00:32:11.845Z,2.01
2023-02-04T00:34:38.834Z,1.99
2023-02-04T00:37:06.002Z,2.13
2023-02-04T00:39:33.087Z,2.18
2023-02-04T00:41:59.951Z,2.19
2023-02-04T00:44:29.079Z,2.22
2023-02-04T00:46:56.058Z,2.15
2023-02-04T00:49:23.196Z,2.05
2023-02-04T00:51:50.171Z,1.94
2023-02-04T00:54:17.428Z,1.84
2023-02-04T00:56:44.841Z,1.83
2023-02-04T00:59:11.754Z,1.75
2023-02-04T01:01:39.247Z,1.59
2023-02-04T01:04:06.379Z,1.49
2023-02-04T01:06:33.574Z,1.40
2023-02-04T01:09:01.823Z,1.30
2023-02-04T01:11:29.356Z,1.30
2023-02-04T01:13:56.407Z,1.21
2023-02-04T01:16:23.498Z,1.15
2023-02-04T01:18:50.926Z,1.13
2023-02-04T01:21:17.866Z,1.01
2023-02-04T01:23:45.066Z,0.83
2023-02-04T01:26:12.099Z,0.77
2023-02-04T01:28:38.940Z,0.78
2023-02-04T01:31:06.095Z,0.82
2023-02-04T01:33:33.250Z,0.85
2023-02-04T01:36:00.423Z,0.90
2023-02-04T01:38:27.416Z,0.80
2023-02-04T01:40:54.716Z,0.82
2023-02-04T01:43:23.424Z,0.79
2023-02-04T01:45:51.438Z,0.75
2023-02-04T01:48:21.507Z,0.65
2023-02-04T01:50:50.721Z,0.70
2023-02-04T01:53:22.136Z,0.62
2023-02-04T01:55:49.064Z,0.57
2023-02-04T01:58:16.743Z,0.49
2023-02-04T02:00:43.575Z,0.51
2023-02-04T02:03:13.622Z,0.46
2023-02-04T02:05:51.544Z,0.51
2023-02-04T02:08:18.784Z,0.44
2023-02-04T02:10:48.392Z,0.31
2023-02-04T02:13:19.788Z,0.29
2023-02-04T02:15:47.767Z,0.24
2023-02-04T02:18:15.346Z,0.22
2023-02-04T02:20:45.236Z,0.21
2023-02-04T02:23:33.755Z,0.27
2023-02-04T02:26:00.688Z,0.22
2023-02-04T02:28:27.741Z,0.13
2023-02-04T02:30:54.779Z,-0.03
2023-02-04T02:33:22.183Z,-0.06
2023-02-04T02:35:49.492Z,-0.08
2023-02-04T02:38:17.569Z,-0.17
2023-02-04T02:40:45.311Z,-0.21
2023-02-04T02:43:19.073Z,-0.28
2023-02-04T02:45:46.294Z,-0.37
2023-02-04T02:48:13.370Z,-0.48
2023-02-04T02:50:42.372Z,-0.59
2023-02-04T02:53:17.189Z,-0.68
2023-02-04T02:55:44.944Z,-0.73
2023-02-04T02:58:23.670Z,-0.77
2023-02-04T03:00:50.909Z,-0.80
2023-02-04T03:03:23.921Z,-0.84
2023-02-04T03:05:55.589Z,-0.84
2023-02-04T03:08:22.753Z,-1.04
2023-02-04T03:10:49.869Z,-1.12
2023-02-04T03:13:18.593Z,-1.02
2023-02-04T03:15:48.010Z,-0.93
2023-02-04T03:18:20.994Z,-0.90
2023-02-04T03:20:50.852Z,-0.81
2023-02-04T03:23:18.564Z,-0.84
2023-02-04T03:25:45.666Z,-0.89
2023-02-04T03:28:12.741Z,-0.98
2023-02-04T03:30:39.890Z,-0.88
2023-02-04T03:33:07.205Z,-0.89
2023-02-04T03:35:34.159Z,-0.94
2023-02-04T03:38:01.335Z,-0.93
2023-02-04T03:40:30.282Z,-0.97
2023-02-04T03:42:57.500Z,-1.02
2023-02-04T03:45:24.951Z,-1.13
2023-02-04T03:47:52.069Z,-1.28
2023-02-04T03:50:19.255Z,-1.40
2023-02-04T03:52:46.147Z,-1.37
2023-02-04T03:55:13.129Z,-1.34
2023-02-04T03:57:40.149Z,-1.46
2023-02-04T04:00:07.894Z,-1.55
2023-02-04T04:02:34.875Z,-1.68
2023-02-04T04:05:01.985Z,-1.71
2023-02-04T04:07:28.865Z,-1.90
2023-02-04T04:09:55.756Z,-2.07
2023-02-04T04:12:22.619Z,-1.96
2023-02-04T04:14:49.586Z,-1.89
2023-02-04T04:17:16.582Z,-1.94
2023-02-04T04:19:45.272Z,-1.92
2023-02-04T04:22:14.190Z,-1.90
2023-02-04T04:24:44.151Z,-1.89
2023-02-04T04:27:11.172Z,-1.96
2023-02-04T04:29:38.030Z,-1.99
2023-02-04T04:32:05.644Z,-1.94
2023-02-04T04:34:32.564Z,-2.04
2023-02-04T04:36:59.576Z,-2.11
2023-02-04T04:39:26.639Z,-2.25
2023-02-04T04:41:53.686Z,-2.25
2023-02-04T04:44:20.753Z,-2.33
2023-02-04T04:46:47.805Z,-2.37
2023-02-04T04:49:15.016Z,-2.29
2023-02-04T04:51:41.738Z,-2.20
2023-02-04T04:54:08.947Z,-2.05
2023-02-04T04:56:35.872Z,-2.04
2023-02-04T04:59:03.698Z,-2.00
2023-02-04T05:01:30.606Z,-1.90
2023-02-04T05:03:57.691Z,-1.80
2023-02-04T05:06:25.696Z,-1.70
2023-02-04T05:08:53.146Z,-1.60
2023-02-04T05:11:20.962Z,-1.51
2023-02-04T05:13:51.532Z,-1.37
2023-02-04T05:16:18.511Z,-1.34
2023-02-04T05:18:45.668Z,-1.21
2023-02-04T05:21:12.676Z,-1.23
2023-02-04T05:23:39.449Z,-1.11
2023-02-04T05:26:06.222Z,-1.04
2023-02-04T05:28:33.089Z,-0.98
2023-02-04T05:31:00.396Z,-0.81
2023-02-04T05:33:27.411Z,-0.88
2023-02-04T05:35:54.261Z,-0.86
2023-02-04T05:38:22.958Z,-0.81
2023-02-04T05:40:49.915Z,-0.78
2023-02-04T05:43:16.763Z,-0.84
2023-02-04T05:45:44.708Z,-0.92
2023-02-04T05:48:11.549Z,-0.67
2023-02-04T05:50:38.365Z,-0.62
2023-02-04T05:53:07.824Z,-0.61
2023-02-04T05:55:34.788Z,-0.54
2023-02-04T05:58:02.062Z,-0.55
2023-02-04T06:00:29.126Z,-0.57
2023-02-04T06:02:55.898Z,-0.56
2023-02-04T06:05:23.471Z,-0.63
2023-02-04T06:07:50.550Z,-0.72
2023-02-04T06:10:17.639Z,-0.78
2023-02-04T06:12:44.692Z,-0.75
2023-02-04T06:15:12.113Z,-0.68
2023-02-04T06:17:39.356Z,-0.67
2023-02-04T06:20:07.528Z,-0.69
2023-02-04T06:22:34.799Z,-0.78
2023-02-04T06:25:01.799Z,-0.81
2023-02-04T06:27:28.823Z,-0.87
2023-02-04T06:29:56.032Z,-0.94
2023-02-04T06:32:23.510Z,-1.05
2023-02-04T06:34:50.737Z,-1.07
2023-02-04T06:37:17.629Z,-1.30
2023-02-04T06:39:44.835Z,-1.31
2023-02-04T06:42:11.746Z,-1.23
2023-02-04T06:44:38.936Z,-1.21
2023-02-04T06:47:05.842Z,-1.19
2023-02-04T06:49:32.753Z,-1.28
2023-02-04T06:51:59.726Z,-1.19
2023-02-04T06:54:26.696Z,-1.06
2023-02-04T06:56:53.578Z,-1.03
2023-02-04T06:59:20.540Z,-0.92
2023-02-04T07:01:47.831Z,-0.86
2023-02-04T07:04:14.856Z,-0.83
2023-02-04T07:06:41.879Z,-0.78
2023-02-04T07:09:08.631Z,-0.79
2023-02-04T07:11:35.369Z,-0.76
2023-02-04T07:14:02.671Z,-0.80
2023-02-04T07:16:29.572Z,-0.84
2023-02-04T07:18:56.518Z,-0.84
2023-02-04T07:21:23.730Z,-0.82
2023-02-04T07:23:50.706Z,-0.97
2023-02-04T07:26:17.754Z,-1.05
2023-02-04T07:28:45.127Z,-0.97
2023-02-04T07:31:12.237Z,-0.90
2023-02-04T07:33:39.490Z,-0.85
2023-02-04T07:36:06.742Z,-0.83
2023-02-04T07:38:33.726Z,-0.80
2023-02-04T07:41:00.594Z,-0.59
2023-02-04T07:43:27.644Z,-0.44
2023-02-04T07:45:54.462Z,-0.28
2023-02-04T07:48:21.485Z,-0.02
2023-02-04T07:50:49.379Z,0.27
2023-02-04T07:53:16.348Z,0.40
2023-02-04T07:55:43.856Z,0.46
2023-02-04T07:58:10.777Z,0.56
2023-02-04T08:00:37.748Z,0.93
2023-02-04T08:03:04.863Z,0.95
2023-02-04T08:05:31.784Z,0.95
2023-02-04T08:07:58.920Z,0.96
2023-02-04T08:10:25.735Z,0.85
2023-02-04T08:12:52.517Z,0.89
2023-02-04T08:15:19.756Z,0.95
2023-02-04T08:17:46.465Z,0.99
2023-02-04T08:20:13.571Z,0.99
2023-02-04T08:22:40.419Z,1.02
2023-02-04T08:25:07.853Z,1.04
2023-02-04T08:27:34.769Z,1.12
2023-02-04T08:30:01.613Z,1.13
2023-02-04T08:32:29.607Z,1.06
2023-02-04T08:34:59.439Z,1.06
2023-02-04T08:37:26.211Z,1.20
2023-02-04T08:39:53.354Z,1.24
2023-02-04T08:42:20.395Z,1.38
2023-02-04T08:44:47.440Z,1.45
2023-02-04T08:47:14.375Z,1.65
2023-02-04T08:49:41.426Z,1.56
2023-02-04T08:52:09.303Z,1.60
2023-02-04T08:54:36.336Z,1.46
2023-02-04T08:57:03.737Z,1.40
2023-02-04T08:59:30.869Z,1.62
2023-02-04T09:01:57.849Z,1.79
2023-02-04T09:04:25.143Z,1.76
2023-02-04T09:06:52.086Z,1.79
2023-02-04T09:09:22.280Z,1.73
2023-02-04T09:11:49.592Z,1.53
2023-02-04T09:14:16.327Z,1.83
2023-02-04T09:16:43.383Z,2.31
2023-02-04T09:19:12.816Z,2.40
2023-02-04T09:21:39.828Z,2.32
2023-02-04T09:24:06.814Z,2.35
2023-02-04T09:26:34.053Z,2.28
2023-02-04T09:29:00.924Z,2.28
2023-02-04T09:31:27.926Z,2.03
2023-02-04T09:33:55.030Z,1.98
2023-02-04T09:36:21.949Z,1.94
2023-02-04T09:38:48.673Z,2.10
2023-02-04T09:41:15.852Z,2.08
2023-02-04T09:43:44.657Z,2.06
2023-02-04T09:46:23.299Z,2.06
2023-02-04T09:48:54.315Z,2.12
2023-02-04T09:51:24.100Z,2.07
2023-02-04T09:53:56.183Z,2.19
2023-02-04T09:56:28.617Z,2.22
2023-02-04T09:58:55.428Z,2.71
2023-02-04T10:01:22.617Z,2.83
2023-02-04T10:03:51.696Z,2.86
2023-02-04T10:06:21.631Z,4.27
2023-02-04T10:08:50.548Z,5.98
2023-02-04T10:11:19.832Z,6.25
2023-02-04T10:13:55.057Z,6.11
2023-02-04T10:16:30.384Z,6.17
2023-02-04T10:19:03.823Z,6.22
2023-02-04T10:21:33.161Z,5.13
2023-02-04T10:24:03.167Z,5.65
2023-02-04T10:26:31.882Z,5.78
2023-02-04T10:29:04.443Z,5.39
2023-02-04T10:31:38.803Z,5.46
2023-02-04T10:34:18.949Z,4.88
2023-02-04T10:36:49.047Z,4.92
2023-02-04T10:39:18.097Z,4.49
2023-02-04T10:41:50.435Z,4.71
2023-02-04T10:44:20.439Z,4.76
2023-02-04T10:46:48.620Z,4.97
2023-02-04T10:49:22.892Z,4.94
2023-02-04T10:51:51.751Z,4.95
2023-02-04T10:54:30.573Z,4.91
2023-02-04T10:57:28.915Z,4.72
2023-02-04T10:59:59.490Z,4.88
2023-02-04T11:02:49.753Z,5.26
2023-02-04T11:05:20.771Z,5.39
2023-02-04T11:07:49.791Z,5.18
2023-02-04T11:10:25.193Z,5.04
2023-02-04T11:12:54.916Z,5.08
2023-02-04T11:15:42.247Z,5.12
2023-02-04T11:18:22.660Z,4.92
2023-02-04T11:20:51.721Z,5.36
2023-02-04T11:23:28.598Z,5.23
2023-02-04T11:26:02.336Z,5.41
2023-02-04T11:28:29.417Z,5.41
2023-02-04T11:31:04.057Z,5.64
2023-02-04T11:33:43.227Z,5.68
2023-02-04T11:36:13.670Z,5.36
2023-02-04T11:38:45.675Z,5.23
2023-02-04T11:41:29.485Z,5.09
2023-02-04T11:43:58.191Z,5.01
2023-02-04T11:46:28.594Z,4.94
2023-02-04T11:48:57.625Z,5.13
2023-02-04T11:51:33.198Z,5.24
2023-02-04T11:54:00.166Z,5.08
2023-02-04T11:56:29.860Z,4.84
2023-02-04T11:58:58.653Z,4.87
2023-02-04T12:01:32.309Z,5.12
2023-02-04T12:04:02.172Z,5.44
2023-02-04T12:06:33.290Z,5.67
2023-02-04T12:09:07.924Z,5.37
2023-02-04T12:11:35.802Z,5.83
2023-02-04T12:14:10.941Z,5.81
2023-02-04T12:16:48.084Z,6.18
2023-02-04T12:19:15.617Z,5.67
2023-02-04T12:21:42.577Z,5.97
2023-02-04T12:24:09.849Z,5.47
2023-02-04T12:26:36.854Z,5.43
2023-02-04T12:29:05.731Z,5.17
2023-02-04T12:31:33.598Z,4.78
2023-02-04T12:34:01.096Z,5.06
2023-02-04T12:36:29.864Z,4.82
2023-02-04T12:38:59.150Z,4.81
2023-02-04T12:41:26.463Z,4.84
2023-02-04T12:43:55.337Z,4.61
2023-02-04T12:46:22.439Z,4.90
2023-02-04T12:48:49.420Z,5.06
2023-02-04T12:51:16.282Z,5.01
2023-02-04T12:53:43.229Z,4.86
2023-02-04T12:56:12.784Z,4.81
2023-02-04T12:58:39.677Z,4.60
2023-02-04T13:01:06.733Z,4.68
2023-02-04T13:03:33.948Z,4.55
2023-02-04T13:06:00.761Z,4.81
2023-02-04T13:08:27.591Z,4.73
2023-02-04T13:10:55.706Z,4.73
2023-02-04T13:13:24.357Z,4.58
2023-02-04T13:15:51.349Z,4.31
2023-02-04T13:18:18.827Z,4.32
2023-02-04T13:20:46.432Z,4.38
2023-02-04T13:23:14.331Z,4.43
2023-02-04T13:25:41.233Z,4.54
2023-02-04T13:28:08.222Z,4.78
2023-02-04T13:30:35.289Z,4.89
2023-02-04T13:33:02.461Z,5.01
2023-02-04T13:35:29.450Z,4.94
2023-02-04T13:37:56.623Z,4.91
2023-02-04T13:40:23.715Z,4.71
2023-02-04T13:42:50.876Z,4.83
2023-02-04T13:45:19.373Z,4.63
2023-02-04T13:47:48.143Z,4.69
2023-02-04T13:50:19.862Z,4.57
2023-02-04T13:52:46.661Z,4.59
2023-02-04T13:55:13.444Z,4.44
2023-02-04T13:57:40.271Z,4.35
2023-02-04T14:00:08.107Z,4.31
2023-02-04T14:02:34.945Z,4.13
2023-02-04T14:05:02.012Z,3.99
2023-02-04T14:07:30.679Z,4.06
2023-02-04T14:09:57.495Z,4.14
2023-02-04T14:12:24.314Z,4.13
2023-02-04T14:14:51.093Z,4.15
2023-02-04T14:17:18.037Z,4.14
2023-02-04T14:19:44.849Z,4.06
2023-02-04T14:22:13.031Z,4.10
2023-02-04T14:24:42.774Z,4.04
2023-02-04T14:27:10.633Z,3.86
2023-02-04T14:29:37.594Z,3.70
2023-02-04T14:32:07.481Z,3.64
2023-02-04T14:34:34.876Z,3.49
2023-02-04T14:37:02.042Z,3.30
2023-02-04T14:39:29.054Z,3.38
2023-02-04T14:41:55.859Z,3.31
2023-02-04T14:44:22.613Z,3.25
2023-02-04T14:46:50.008Z,3.31
2023-02-04T14:49:17.701Z,3.21
2023-02-04T14:51:44.925Z,3.20
2023-02-04T14:54:11.741Z,3.03
2023-02-04T14:56:39.006Z,3.11
2023-02-04T14:59:06.291Z,3.23
2023-02-04T15:01:33.383Z,3.22
2023-02-04T15:04:00.867Z,3.24
2023-02-04T15:06:29.046Z,3.31
2023-02-04T15:08:57.405Z,3.36
2023-02-04T15:11:24.381Z,3.40
2023-02-04T15:13:51.112Z,3.36
2023-02-04T15:16:18.150Z,3.38
2023-02-04T15:18:45.185Z,3.34
2023-02-04T15:21:12.098Z,3.31
2023-02-04T15:23:39.067Z,3.30
2023-02-04T15:26:06.019Z,3.25
2023-02-04T15:28:35.746Z,3.26
2023-02-04T15:31:04.978Z,3.20
2023-02-04T15:33:32.232Z,3.09
2023-02-04T15:35:59.107Z,3.06
2023-02-04T15:38:26.004Z,3.07
2023-02-04T15:40:52.973Z,3.07
2023-02-04T15:43:20.165Z,2.92
2023-02-04T15:45:47.505Z,2.90
2023-02-04T15:48:14.404Z,2.94
2023-02-04T15:50:41.192Z,2.91
2023-02-04T15:53:08.124Z,2.86
2023-02-04T15:55:35.926Z,2.84
2023-02-04T15:58:02.714Z,2.76
2023-02-04T16:00:29.741Z,2.79
2023-02-04T16:02:56.756Z,2.84
2023-02-04T16:05:23.955Z,2.87
2023-02-04T16:07:50.967Z,2.74
2023-02-04T16:10:18.869Z,2.62
2023-02-04T16:12:47.574Z,2.65
2023-02-04T16:15:15.203Z,2.52
2023-02-04T16:17:42.082Z,2.43
2023-02-04T16:20:10.268Z,2.26
2023-02-04T16:22:39.901Z,2.29
2023-02-04T16:25:07.298Z,2.32
2023-02-04T16:27:34.270Z,2.24
2023-02-04T16:30:01.439Z,2.20
2023-02-04T16:32:28.408Z,2.20
2023-02-04T16:34:56.899Z,2.07
2023-02-04T16:37:23.817Z,1.99
2023-02-04T16:39:51.774Z,1.94
2023-02-04T16:42:19.448Z,2.02
2023-02-04T16:44:47.095Z,1.94
2023-02-04T16:47:14.164Z,1.93
2023-02-04T16:49:45.133Z,1.98
2023-02-04T16:52:11.858Z,1.89
2023-02-04T16:54:38.855Z,1.83
2023-02-04T16:57:05.811Z,1.73
2023-02-04T16:59:33.108Z,1.81
2023-02-04T17:02:00.944Z,1.72
2023-02-04T17:04:30.703Z,1.69
2023-02-04T17:06:57.644Z,1.72
2023-02-04T17:09:24.698Z,1.72
2023-02-04T17:11:52.440Z,1.66
2023-02-04T17:14:20.072Z,1.59
2023-02-04T17:16:48.318Z,1.49
2023-02-04T17:19:21.439Z,1.46
2023-02-04T17:21:49.204Z,1.41
2023-02-04T17:24:16.298Z,1.41
2023-02-04T17:26:43.380Z,1.41
2023-02-04T17:29:13.789Z,1.41
2023-02-04T17:31:43.486Z,1.36
2023-02-04T17:34:10.882Z,1.29
2023-02-04T17:36:38.994Z,1.22
2023-02-04T17:39:09.876Z,1.21
2023-02-04T17:41:36.807Z,1.20
2023-02-04T17:44:06.176Z,1.08
2023-02-04T17:46:35.934Z,1.01
2023-02-04T17:49:02.862Z,0.89
2023-02-04T17:51:29.839Z,0.92
2023-02-04T17:54:00.802Z,0.89
2023-02-04T17:56:28.065Z,0.81
2023-02-04T17:58:56.683Z,0.81
2023-02-04T18:01:25.529Z,0.84
2023-02-04T18:03:53.169Z,0.81
2023-02-04T18:06:23.954Z,0.93
2023-02-04T18:08:52.785Z,0.97
2023-02-04T18:11:27.398Z,0.98
2023-02-04T18:14:00.040Z,1.01
2023-02-04T18:16:30.498Z,1.05
2023-02-04T18:19:17.210Z,1.01
2023-02-04T18:21:44.659Z,0.98
2023-02-04T18:24:11.456Z,0.96
2023-02-04T18:26:44.315Z,0.95
2023-02-04T18:29:33.161Z,1.09
2023-02-04T18:32:04.114Z,1.11
2023-02-04T18:34:37.536Z,1.06
2023-02-04T18:37:29.222Z,1.03
2023-02-04T18:40:11.840Z,1.05
2023-02-04T18:42:44.607Z,1.03
2023-02-04T18:45:32.617Z,1.05
2023-02-04T18:48:20.936Z,1.06
2023-02-04T18:50:49.358Z,1.10
2023-02-04T18:53:16.686Z,1.15
2023-02-04T18:55:48.859Z,1.08
2023-02-04T18:58:34.648Z,1.02
2023-02-04T19:01:16.904Z,1.03
2023-02-04T19:03:53.036Z,1.09
2023-02-04T19:06:34.532Z,1.10
2023-02-04T19:09:10.209Z,1.11
2023-02-04T19:11:51.841Z,1.06
2023-02-04T19:14:51.751Z,1.01
2023-02-04T19:17:33.537Z,0.93
2023-02-04T19:20:23.049Z,0.94
2023-02-04T19:22:57.195Z,0.95
2023-02-04T19:25:36.171Z,0.90
2023-02-04T19:28:24.394Z,0.77
2023-02-04T19:31:01.792Z,0.72
2023-02-04T19:33:35.876Z,0.60
2023-02-04T19:36:40.177Z,0.52
2023-02-04T19:39:22.255Z,0.38
2023-02-04T19:41:51.207Z,0.28
2023-02-04T19:44:41.129Z,0.28
2023-02-04T19:47:42.866Z,0.21
2023-02-04T19:50:29.482Z,0.02
2023-02-04T19:53:13.563Z,0.05
2023-02-04T19:55:46.355Z,-0.07
2023-02-04T19:58:27.476Z,0.02
2023-02-04T20:01:01.925Z,-0.05
2023-02-04T20:03:52.502Z,-0.11
2023-02-04T20:06:37.257Z,-0.15
2023-02-04T20:09:18.884Z,-0.25
2023-02-04T20:11:48.706Z,-0.28
2023-02-04T20:14:19.128Z,-0.17
2023-02-04T20:16:57.799Z,-0.25
2023-02-04T20:19:25.310Z,-0.36
2023-02-04T20:22:26.533Z,-0.39
2023-02-04T20:24:59.244Z,-0.32
2023-02-04T20:27:37.423Z,-0.31
2023-02-04T20:30:11.999Z,-0.29
2023-02-04T20:32:44.978Z,-0.41
2023-02-04T20:35:17.738Z,-0.35
2023-02-04T20:37:48.853Z,-0.35
2023-02-04T20:40:21.598Z,-0.30
2023-02-04T20:42:55.047Z,-0.32
2023-02-04T20:45:44.392Z,-0.48
2023-02-04T20:48:20.620Z,-0.53
2023-02-04T20:50:54.863Z,-0.65
2023-02-04T20:53:25.944Z,-0.70
2023-02-04T20:56:05.685Z,-0.96
2023-02-04T20:58:41.713Z,-1.10
2023-02-04T21:01:28.146Z,-1.13
2023-02-04T21:03:57.990Z,-1.17
2023-02-04T21:06:35.366Z,-1.21
2023-02-04T21:09:04.541Z,-1.30
2023-02-04T21:11:31.463Z,-1.41
2023-02-04T21:13:58.425Z,-1.40
2023-02-04T21:16:25.362Z,-1.53
2023-02-04T21:18:53.285Z,-1.56
2023-02-04T21:21:21.316Z,-1.56
2023-02-04T21:23:48.394Z,-1.63
2023-02-04T21:26:15.350Z,-1.77
2023-02-04T21:28:42.276Z,-1.86
2023-02-04T21:31:11.857Z,-1.82
2023-02-04T21:33:38.998Z,-1.62
2023-02-04T21:36:06.290Z,-1.72
2023-02-04T21:38:34.173Z,-1.85
2023-02-04T21:41:01.108Z,-1.85
2023-02-04T21:43:30.510Z,-1.87
2023-02-04T21:45:57.651Z,-1.89
2023-02-04T21:48:25.024Z,-1.83
2023-02-04T21:50:52.062Z,-1.68
2023-02-04T21:53:19.043Z,-1.72
2023-02-04T21:55:45.903Z,-1.80
2023-02-04T21:58:12.831Z,-1.85
2023-02-04T22:00:42.908Z,-1.76
2023-02-04T22:03:15.836Z,-1.76
2023-02-04T22:05:44.403Z,-1.72
2023-02-04T22:08:12.560Z,-1.83
2023-02-04T22:10:39.769Z,-1.82
2023-02-04T22:13:25.475Z,-1.84
2023-02-04T22:15:52.281Z,-1.83
2023-02-04T22:18:20.546Z,-1.86
2023-02-04T22:20:47.297Z,-1.85
2023-02-04T22:23:14.051Z,-1.85
2023-02-04T22:25:41.231Z,-1.90
2023-02-04T22:28:08.391Z,-1.83
2023-02-04T22:30:35.355Z,-1.87
2023-02-04T22:33:02.860Z,-1.77
2023-02-04T22:35:30.008Z,-1.85
2023-02-04T22:37:58.568Z,-1.86
2023-02-04T22:40:26.873Z,-1.93
2023-02-04T22:42:54.043Z,-1.87
2023-02-04T22:45:20.977Z,-1.92
2023-02-04T22:47:48.016Z,-1.98
2023-02-04T22:50:14.996Z,-1.91
2023-02-04T22:52:43.809Z,-2.04
2023-02-04T22:55:10.833Z,-2.05
2023-02-04T22:57:37.747Z,-1.98
2023-02-04T23:00:09.395Z,-1.92
2023-02-04T23:02:41.110Z,-1.87
2023-02-04T23:05:09.585Z,-1.85
2023-02-04T23:07:37.534Z,-2.00
2023-02-04T23:10:04.737Z,-1.88
2023-02-04T23:12:31.452Z,-1.95
2023-02-04T23:14:58.488Z,-2.01
2023-02-04T23:17:28.267Z,-2.04
2023-02-04T23:19:55.258Z,-2.03
2023-02-04T23:22:22.382Z,-2.10
2023-02-04T23:24:49.925Z,-2.16
2023-02-04T23:27:17.297Z,-2.14
2023-02-04T23:29:44.324Z,-2.05
2023-02-04T23:32:11.229Z,-2.16
2023-02-04T23:34:38.086Z,-2.09
2023-02-04T23:37:05.234Z,-2.05
2023-02-04T23:39:32.237Z,-2.12
2023-02-04T23:41:59.293Z,-2.19
2023-02-04T23:44:26.244Z,-2.17
2023-02-04T23:46:53.257Z,-2.15
2023-02-04T23:49:20.513Z,-2.24
2023-02-04T23:51:47.389Z,-2.21
2023-02-04T23:54:14.469Z,-2.24
2023-02-04T23:56:41.544Z,-2.26
2023-02-04T23:59:08.672Z,-2.34
